sensor_id;sensor_type;location;lat;lon;timestamp;pressure;altitude;pressure_sealevel;temperature;humidity
6567;BME280;3317;43.994;22.878;2023-05-08T00:00:16;101046.50;;;19.77;51.31
6567;BME280;3317;43.994;22.878;2023-05-08T00:02:43;101043.94;;;19.75;51.41
6567;BME280;3317;43.994;22.878;2023-05-08T00:05:09;101044.56;;;19.70;51.51
6567;BME280;3317;43.994;22.878;2023-05-08T00:07:36;101056.00;;;19.67;51.57
6567;BME280;3317;43.994;22.878;2023-05-08T00:10:06;101053.03;;;19.62;51.70
6567;BME280;3317;43.994;22.878;2023-05-08T00:12:34;101047.09;;;19.59;51.62
6567;BME280;3317;43.994;22.878;2023-05-08T00:15:01;101040.69;;;19.51;51.06
6567;BME280;3317;43.994;22.878;2023-05-08T00:17:29;101035.78;;;19.40;51.06
6567;BME280;3317;43.994;22.878;2023-05-08T00:19:55;101048.94;;;19.45;51.19
6567;BME280;3317;43.994;22.878;2023-05-08T00:22:22;101049.53;;;19.40;51.00
6567;BME280;3317;43.994;22.878;2023-05-08T00:24:49;101048.69;;;19.39;51.02
6567;BME280;3317;43.994;22.878;2023-05-08T00:27:18;101051.88;;;19.36;51.00
6567;BME280;3317;43.994;22.878;2023-05-08T00:29:47;101043.59;;;19.30;51.18
6567;BME280;3317;43.994;22.878;2023-05-08T00:32:14;101058.16;;;19.30;50.90
6567;BME280;3317;43.994;22.878;2023-05-08T00:34:41;101060.47;;;19.26;51.16
6567;BME280;3317;43.994;22.878;2023-05-08T00:37:08;101056.44;;;19.22;51.42
6567;BME280;3317;43.994;22.878;2023-05-08T00:39:35;101060.44;;;19.20;51.58
6567;BME280;3317;43.994;22.878;2023-05-08T00:42:02;101057.00;;;19.11;51.66
6567;BME280;3317;43.994;22.878;2023-05-08T00:44:30;101061.03;;;19.15;51.37
6567;BME280;3317;43.994;22.878;2023-05-08T00:46:57;101065.91;;;19.13;51.75
6567;BME280;3317;43.994;22.878;2023-05-08T00:49:25;101057.00;;;19.11;50.98
6567;BME280;3317;43.994;22.878;2023-05-08T00:51:53;101054.91;;;19.13;50.82
6567;BME280;3317;43.994;22.878;2023-05-08T00:54:21;101052.56;;;19.10;51.02
6567;BME280;3317;43.994;22.878;2023-05-08T00:56:50;101054.03;;;19.06;51.30
6567;BME280;3317;43.994;22.878;2023-05-08T00:59:19;101051.41;;;18.97;51.42
6567;BME280;3317;43.994;22.878;2023-05-08T01:01:49;101053.53;;;18.95;50.72
6567;BME280;3317;43.994;22.878;2023-05-08T01:04:18;101058.16;;;18.95;51.27
6567;BME280;3317;43.994;22.878;2023-05-08T01:06:47;101055.41;;;18.95;50.91
6567;BME280;3317;43.994;22.878;2023-05-08T01:09:13;101062.81;;;18.94;51.19
6567;BME280;3317;43.994;22.878;2023-05-08T01:11:46;101061.75;;;18.95;51.11
6567;BME280;3317;43.994;22.878;2023-05-08T01:14:19;101067.44;;;18.94;50.04
6567;BME280;3317;43.994;22.878;2023-05-08T01:17:07;101065.75;;;18.93;50.72
6567;BME280;3317;43.994;22.878;2023-05-08T01:19:54;101062.31;;;18.84;51.29
6567;BME280;3317;43.994;22.878;2023-05-08T01:26:01;101070.06;;;18.74;51.58
6567;BME280;3317;43.994;22.878;2023-05-08T01:28:59;101078.88;;;18.69;51.51
6567;BME280;3317;43.994;22.878;2023-05-08T01:31:41;101080.34;;;18.65;51.75
6567;BME280;3317;43.994;22.878;2023-05-08T01:34:14;101063.97;;;18.50;51.75
6567;BME280;3317;43.994;22.878;2023-05-08T01:36:50;101082.97;;;18.51;52.06
6567;BME280;3317;43.994;22.878;2023-05-08T01:39:19;101067.09;;;18.47;51.95
6567;BME280;3317;43.994;22.878;2023-05-08T01:41:54;101076.38;;;18.46;52.11
6567;BME280;3317;43.994;22.878;2023-05-08T01:44:28;101062.50;;;18.25;52.45
6567;BME280;3317;43.994;22.878;2023-05-08T01:47:02;101084.50;;;18.32;52.60
6567;BME280;3317;43.994;22.878;2023-05-08T01:49:37;101074.53;;;18.24;52.60
6567;BME280;3317;43.994;22.878;2023-05-08T01:52:06;101071.06;;;18.15;52.44
6567;BME280;3317;43.994;22.878;2023-05-08T01:54:46;101076.16;;;18.19;52.85
6567;BME280;3317;43.994;22.878;2023-05-08T01:57:15;101068.91;;;18.11;52.88
6567;BME280;3317;43.994;22.878;2023-05-08T01:59:44;101070.22;;;18.15;52.32
6567;BME280;3317;43.994;22.878;2023-05-08T02:02:14;101072.75;;;18.17;52.64
6567;BME280;3317;43.994;22.878;2023-05-08T02:04:43;101071.72;;;18.18;52.43
6567;BME280;3317;43.994;22.878;2023-05-08T02:07:10;101063.28;;;18.19;52.46
6567;BME280;3317;43.994;22.878;2023-05-08T02:09:39;101074.06;;;18.21;52.32
6567;BME280;3317;43.994;22.878;2023-05-08T02:12:07;101060.03;;;18.09;52.62
6567;BME280;3317;43.994;22.878;2023-05-08T02:14:37;101070.41;;;18.13;53.16
6567;BME280;3317;43.994;22.878;2023-05-08T02:17:06;101064.25;;;18.11;53.05
6567;BME280;3317;43.994;22.878;2023-05-08T02:19:36;101057.06;;;18.10;53.05
6567;BME280;3317;43.994;22.878;2023-05-08T02:22:07;101066.81;;;18.13;52.57
6567;BME280;3317;43.994;22.878;2023-05-08T02:24:36;101058.72;;;18.05;52.94
6567;BME280;3317;43.994;22.878;2023-05-08T02:27:04;101076.09;;;18.12;52.72
6567;BME280;3317;43.994;22.878;2023-05-08T02:29:32;101070.78;;;18.10;51.93
6567;BME280;3317;43.994;22.878;2023-05-08T02:32:01;101071.84;;;18.09;52.08
6567;BME280;3317;43.994;22.878;2023-05-08T02:34:29;101030.16;;;17.77;52.94
6567;BME280;3317;43.994;22.878;2023-05-08T02:36:58;101075.53;;;18.01;52.52
6567;BME280;3317;43.994;22.878;2023-05-08T02:39:29;101045.81;;;17.83;52.17
6567;BME280;3317;43.994;22.878;2023-05-08T02:41:56;101067.88;;;17.97;52.76
6567;BME280;3317;43.994;22.878;2023-05-08T02:44:24;101072.53;;;17.96;52.46
6567;BME280;3317;43.994;22.878;2023-05-08T02:46:55;101070.16;;;17.93;52.19
6567;BME280;3317;43.994;22.878;2023-05-08T02:49:27;101059.00;;;17.95;52.55
6567;BME280;3317;43.994;22.878;2023-05-08T02:52:00;101004.03;;;17.59;52.78
6567;BME280;3317;43.994;22.878;2023-05-08T02:54:36;101023.75;;;17.70;53.09
6567;BME280;3317;43.994;22.878;2023-05-08T02:57:09;101074.63;;;17.94;52.80
6567;BME280;3317;43.994;22.878;2023-05-08T02:59:43;101065.53;;;17.94;52.23
6567;BME280;3317;43.994;22.878;2023-05-08T03:02:15;101072.06;;;17.93;51.06
6567;BME280;3317;43.994;22.878;2023-05-08T03:04:49;101053.91;;;17.92;51.93
6567;BME280;3317;43.994;22.878;2023-05-08T03:07:19;101047.97;;;17.88;53.09
6567;BME280;3317;43.994;22.878;2023-05-08T03:09:56;101047.25;;;17.79;53.65
6567;BME280;3317;43.994;22.878;2023-05-08T03:12:26;101037.69;;;17.53;54.24
6567;BME280;3317;43.994;22.878;2023-05-08T03:14:59;101033.03;;;17.17;55.39
6567;BME280;3317;43.994;22.878;2023-05-08T03:17:31;101037.94;;;16.92;56.18
6567;BME280;3317;43.994;22.878;2023-05-08T03:20:02;101033.28;;;16.62;57.36
6567;BME280;3317;43.994;22.878;2023-05-08T03:22:31;101010.88;;;16.28;58.11
6567;BME280;3317;43.994;22.878;2023-05-08T03:25:03;101036.25;;;16.37;58.36
6567;BME280;3317;43.994;22.878;2023-05-08T03:27:31;101043.69;;;16.28;58.89
6567;BME280;3317;43.994;22.878;2023-05-08T03:29:59;101049.72;;;16.24;59.40
6567;BME280;3317;43.994;22.878;2023-05-08T03:32:28;101047.53;;;16.19;59.67
6567;BME280;3317;43.994;22.878;2023-05-08T03:34:58;101047.16;;;16.22;59.71
6567;BME280;3317;43.994;22.878;2023-05-08T03:37:26;101062.63;;;16.30;59.07
6567;BME280;3317;43.994;22.878;2023-05-08T03:39:54;101076.25;;;16.38;58.73
6567;BME280;3317;43.994;22.878;2023-05-08T03:42:24;101087.31;;;16.45;59.02
6567;BME280;3317;43.994;22.878;2023-05-08T03:44:52;101089.47;;;16.50;59.40
6567;BME280;3317;43.994;22.878;2023-05-08T03:47:20;101079.47;;;16.57;58.96
6567;BME280;3317;43.994;22.878;2023-05-08T03:49:49;101091.41;;;16.64;59.37
6567;BME280;3317;43.994;22.878;2023-05-08T03:52:16;101095.28;;;16.70;59.58
6567;BME280;3317;43.994;22.878;2023-05-08T03:54:43;101100.00;;;16.76;58.65
6567;BME280;3317;43.994;22.878;2023-05-08T03:57:10;101098.22;;;16.83;57.16
6567;BME280;3317;43.994;22.878;2023-05-08T03:59:43;101105.31;;;16.93;56.95
6567;BME280;3317;43.994;22.878;2023-05-08T04:02:18;101106.13;;;17.01;56.10
6567;BME280;3317;43.994;22.878;2023-05-08T04:04:53;101035.63;;;16.65;57.24
6567;BME280;3317;43.994;22.878;2023-05-08T04:07:25;101115.94;;;17.11;57.72
6567;BME280;3317;43.994;22.878;2023-05-08T04:09:58;101114.69;;;17.13;58.01
6567;BME280;3317;43.994;22.878;2023-05-08T04:12:35;101125.75;;;17.20;58.09
6567;BME280;3317;43.994;22.878;2023-05-08T04:15:08;101115.34;;;17.15;58.07
6567;BME280;3317;43.994;22.878;2023-05-08T04:17:40;101123.59;;;17.30;58.27
6567;BME280;3317;43.994;22.878;2023-05-08T04:20:10;101119.25;;;17.36;57.67
6567;BME280;3317;43.994;22.878;2023-05-08T04:22:39;101121.81;;;17.38;58.63
6567;BME280;3317;43.994;22.878;2023-05-08T04:25:08;101118.09;;;17.30;59.59
6567;BME280;3317;43.994;22.878;2023-05-08T04:27:37;101119.41;;;17.35;58.91
6567;BME280;3317;43.994;22.878;2023-05-08T04:30:07;101118.09;;;17.30;59.96
6567;BME280;3317;43.994;22.878;2023-05-08T04:32:36;101119.63;;;17.18;60.94
6567;BME280;3317;43.994;22.878;2023-05-08T04:35:05;101118.94;;;17.01;61.90
6567;BME280;3317;43.994;22.878;2023-05-08T04:37:32;101118.59;;;17.04;61.53
6567;BME280;3317;43.994;22.878;2023-05-08T04:40:00;101121.22;;;17.12;61.82
6567;BME280;3317;43.994;22.878;2023-05-08T04:42:28;101106.38;;;17.07;62.23
6567;BME280;3317;43.994;22.878;2023-05-08T04:44:55;101114.25;;;17.10;62.74
6567;BME280;3317;43.994;22.878;2023-05-08T04:47:23;101124.25;;;17.02;62.86
6567;BME280;3317;43.994;22.878;2023-05-08T04:49:50;101118.69;;;17.11;62.81
6567;BME280;3317;43.994;22.878;2023-05-08T04:52:17;101102.50;;;17.01;62.83
6567;BME280;3317;43.994;22.878;2023-05-08T04:54:44;101120.47;;;17.19;62.63
6567;BME280;3317;43.994;22.878;2023-05-08T04:57:11;101134.53;;;17.30;61.87
6567;BME280;3317;43.994;22.878;2023-05-08T04:59:38;101073.91;;;17.03;62.18
6567;BME280;3317;43.994;22.878;2023-05-08T05:02:05;101128.19;;;17.45;61.14
6567;BME280;3317;43.994;22.878;2023-05-08T05:04:34;101137.06;;;17.62;60.83
6567;BME280;3317;43.994;22.878;2023-05-08T05:07:02;101147.56;;;17.73;60.02
6567;BME280;3317;43.994;22.878;2023-05-08T05:09:29;101140.53;;;17.86;59.59
6567;BME280;3317;43.994;22.878;2023-05-08T05:11:59;101134.72;;;17.96;59.71
6567;BME280;3317;43.994;22.878;2023-05-08T05:14:26;101148.91;;;17.99;59.55
6567;BME280;3317;43.994;22.878;2023-05-08T05:16:53;101086.13;;;17.68;58.56
6567;BME280;3317;43.994;22.878;2023-05-08T05:19:20;101134.91;;;18.09;58.29
6567;BME280;3317;43.994;22.878;2023-05-08T05:21:48;101129.31;;;18.18;57.67
6567;BME280;3317;43.994;22.878;2023-05-08T05:24:15;101129.78;;;18.21;57.83
6567;BME280;3317;43.994;22.878;2023-05-08T05:26:42;101092.84;;;18.02;57.61
6567;BME280;3317;43.994;22.878;2023-05-08T05:29:09;101153.63;;;18.42;57.21
6567;BME280;3317;43.994;22.878;2023-05-08T05:31:36;101165.78;;;18.55;57.05
6567;BME280;3317;43.994;22.878;2023-05-08T05:34:03;101168.19;;;18.65;56.50
6567;BME280;3317;43.994;22.878;2023-05-08T05:36:29;101164.78;;;18.63;56.23
6567;BME280;3317;43.994;22.878;2023-05-08T05:38:59;101166.94;;;18.67;56.28
6567;BME280;3317;43.994;22.878;2023-05-08T05:41:26;101099.97;;;18.40;55.83
6567;BME280;3317;43.994;22.878;2023-05-08T05:43:53;101169.00;;;18.87;55.77
6567;BME280;3317;43.994;22.878;2023-05-08T05:46:20;101178.78;;;18.96;55.18
6567;BME280;3317;43.994;22.878;2023-05-08T05:48:52;101168.34;;;19.07;55.07
6567;BME280;3317;43.994;22.878;2023-05-08T05:51:19;101169.41;;;19.06;55.21
6567;BME280;3317;43.994;22.878;2023-05-08T05:53:47;101166.88;;;19.11;55.20
6567;BME280;3317;43.994;22.878;2023-05-08T05:56:15;101170.91;;;19.15;55.19
6567;BME280;3317;43.994;22.878;2023-05-08T05:58:42;101180.06;;;19.22;55.21
6567;BME280;3317;43.994;22.878;2023-05-08T06:01:10;101182.59;;;19.17;55.41
6567;BME280;3317;43.994;22.878;2023-05-08T06:03:36;101188.69;;;19.12;55.61
6567;BME280;3317;43.994;22.878;2023-05-08T06:06:04;101179.38;;;19.13;55.70
6567;BME280;3317;43.994;22.878;2023-05-08T06:08:31;101180.84;;;19.16;55.52
6567;BME280;3317;43.994;22.878;2023-05-08T06:10:58;101122.25;;;18.80;55.72
6567;BME280;3317;43.994;22.878;2023-05-08T06:13:26;101187.84;;;19.19;56.03
6567;BME280;3317;43.994;22.878;2023-05-08T06:15:53;101188.63;;;19.06;56.95
6567;BME280;3317;43.994;22.878;2023-05-08T06:18:22;101191.06;;;19.22;56.41
6567;BME280;3317;43.994;22.878;2023-05-08T06:20:54;101191.19;;;19.14;57.22
6567;BME280;3317;43.994;22.878;2023-05-08T06:23:21;101193.63;;;19.24;57.07
6567;BME280;3317;43.994;22.878;2023-05-08T06:25:48;101186.66;;;19.28;56.51
6567;BME280;3317;43.994;22.878;2023-05-08T06:28:15;101194.00;;;19.21;56.77
6567;BME280;3317;43.994;22.878;2023-05-08T06:30:43;101185.47;;;19.09;56.87
6567;BME280;3317;43.994;22.878;2023-05-08T06:33:10;101190.56;;;18.90;57.68
6567;BME280;3317;43.994;22.878;2023-05-08T06:35:37;101196.78;;;18.77;58.66
6567;BME280;3317;43.994;22.878;2023-05-08T06:38:04;101195.94;;;18.77;58.81
6567;BME280;3317;43.994;22.878;2023-05-08T06:40:31;101184.72;;;18.71;58.93
6567;BME280;3317;43.994;22.878;2023-05-08T06:42:58;101207.31;;;18.95;58.81
6567;BME280;3317;43.994;22.878;2023-05-08T06:45:25;101211.28;;;19.14;58.16
6567;BME280;3317;43.994;22.878;2023-05-08T06:47:53;101214.97;;;19.28;57.77
6567;BME280;3317;43.994;22.878;2023-05-08T06:50:20;101214.69;;;19.45;57.52
6567;BME280;3317;43.994;22.878;2023-05-08T06:52:47;101165.09;;;19.25;57.39
6567;BME280;3317;43.994;22.878;2023-05-08T06:55:14;101197.38;;;19.51;57.19
6567;BME280;3317;43.994;22.878;2023-05-08T06:57:41;101212.22;;;19.28;57.97
6567;BME280;3317;43.994;22.878;2023-05-08T07:00:10;101193.41;;;19.25;58.20
6567;BME280;3317;43.994;22.878;2023-05-08T07:02:37;101217.88;;;19.49;57.85
6567;BME280;3317;43.994;22.878;2023-05-08T07:05:06;101219.69;;;19.35;58.56
6567;BME280;3317;43.994;22.878;2023-05-08T07:07:33;101226.31;;;19.47;58.37
6567;BME280;3317;43.994;22.878;2023-05-08T07:10:00;101219.84;;;19.62;58.08
6567;BME280;3317;43.994;22.878;2023-05-08T07:12:26;101233.69;;;19.82;57.92
6567;BME280;3317;43.994;22.878;2023-05-08T07:14:53;101222.28;;;19.85;57.77
6567;BME280;3317;43.994;22.878;2023-05-08T07:17:20;101251.25;;;20.16;57.29
6567;BME280;3317;43.994;22.878;2023-05-08T07:19:49;101232.25;;;20.35;56.76
6567;BME280;3317;43.994;22.878;2023-05-08T07:22:18;101239.31;;;20.64;56.19
6567;BME280;3317;43.994;22.878;2023-05-08T07:24:46;101244.41;;;20.74;55.69
6567;BME280;3317;43.994;22.878;2023-05-08T07:27:13;101251.44;;;20.84;55.23
6567;BME280;3317;43.994;22.878;2023-05-08T07:29:40;101253.56;;;20.81;54.22
6567;BME280;3317;43.994;22.878;2023-05-08T07:32:07;101247.00;;;20.89;53.58
6567;BME280;3317;43.994;22.878;2023-05-08T07:34:35;101254.41;;;20.89;53.67
6567;BME280;3317;43.994;22.878;2023-05-08T07:37:02;101253.16;;;20.98;53.68
6567;BME280;3317;43.994;22.878;2023-05-08T07:39:30;101256.97;;;20.84;53.32
6567;BME280;3317;43.994;22.878;2023-05-08T07:41:57;101256.53;;;20.93;53.65
6567;BME280;3317;43.994;22.878;2023-05-08T07:44:24;101254.03;;;21.05;53.44
6567;BME280;3317;43.994;22.878;2023-05-08T07:46:51;101252.31;;;21.24;53.22
6567;BME280;3317;43.994;22.878;2023-05-08T07:49:18;101251.44;;;21.51;52.66
6567;BME280;3317;43.994;22.878;2023-05-08T07:51:45;101236.84;;;21.37;52.61
6567;BME280;3317;43.994;22.878;2023-05-08T07:54:12;101240.41;;;21.44;53.05
6567;BME280;3317;43.994;22.878;2023-05-08T07:56:40;101243.78;;;21.53;52.42
6567;BME280;3317;43.994;22.878;2023-05-08T07:59:07;101251.66;;;21.49;52.61
6567;BME280;3317;43.994;22.878;2023-05-08T08:01:34;101248.88;;;21.63;51.83
6567;BME280;3317;43.994;22.878;2023-05-08T08:04:00;101249.28;;;21.73;52.10
6567;BME280;3317;43.994;22.878;2023-05-08T08:06:28;101253.47;;;21.96;51.28
6567;BME280;3317;43.994;22.878;2023-05-08T08:08:54;101249.53;;;22.24;51.01
6567;BME280;3317;43.994;22.878;2023-05-08T08:11:21;101249.44;;;22.44;50.23
6567;BME280;3317;43.994;22.878;2023-05-08T08:13:50;101246.09;;;22.35;49.87
6567;BME280;3317;43.994;22.878;2023-05-08T08:16:17;101246.91;;;22.49;50.03
6567;BME280;3317;43.994;22.878;2023-05-08T08:18:44;101239.69;;;22.42;50.01
6567;BME280;3317;43.994;22.878;2023-05-08T08:21:11;101251.66;;;22.22;49.93
6567;BME280;3317;43.994;22.878;2023-05-08T08:23:38;101254.88;;;22.19;49.95
6567;BME280;3317;43.994;22.878;2023-05-08T08:26:04;101256.09;;;22.30;50.91
6567;BME280;3317;43.994;22.878;2023-05-08T08:28:31;101194.84;;;22.07;49.22
6567;BME280;3317;43.994;22.878;2023-05-08T08:31:00;101247.19;;;22.28;49.36
6567;BME280;3317;43.994;22.878;2023-05-08T08:33:44;101258.03;;;22.29;49.69
6567;BME280;3317;43.994;22.878;2023-05-08T08:36:12;101261.34;;;22.52;49.76
6567;BME280;3317;43.994;22.878;2023-05-08T08:38:40;101257.44;;;22.91;49.59
6567;BME280;3317;43.994;22.878;2023-05-08T08:41:08;101252.84;;;23.36;48.21
6567;BME280;3317;43.994;22.878;2023-05-08T08:43:35;101252.59;;;23.44;47.83
6567;BME280;3317;43.994;22.878;2023-05-08T08:46:10;101245.47;;;23.30;47.44
6567;BME280;3317;43.994;22.878;2023-05-08T08:48:38;101249.97;;;23.49;46.88
6567;BME280;3317;43.994;22.878;2023-05-08T08:51:12;101203.91;;;23.37;46.97
6567;BME280;3317;43.994;22.878;2023-05-08T08:53:42;101254.28;;;24.01;45.40
6567;BME280;3317;43.994;22.878;2023-05-08T08:56:10;101238.91;;;24.24;44.20
6567;BME280;3317;43.994;22.878;2023-05-08T08:58:43;101257.94;;;24.51;43.27
6567;BME280;3317;43.994;22.878;2023-05-08T09:01:15;101263.88;;;24.67;42.62
6567;BME280;3317;43.994;22.878;2023-05-08T09:03:43;101266.75;;;24.60;41.87
6567;BME280;3317;43.994;22.878;2023-05-08T09:06:11;101253.94;;;24.47;42.01
6567;BME280;3317;43.994;22.878;2023-05-08T09:08:39;101264.56;;;24.50;43.10
6567;BME280;3317;43.994;22.878;2023-05-08T09:11:06;101259.81;;;24.69;42.59
6567;BME280;3317;43.994;22.878;2023-05-08T09:13:33;101269.56;;;24.72;42.57
6567;BME280;3317;43.994;22.878;2023-05-08T09:16:00;101263.88;;;24.67;42.76
6567;BME280;3317;43.994;22.878;2023-05-08T09:18:29;101260.00;;;24.86;42.86
6567;BME280;3317;43.994;22.878;2023-05-08T09:20:56;101269.75;;;24.89;42.31
6567;BME280;3317;43.994;22.878;2023-05-08T09:23:24;101267.63;;;24.60;42.47
6567;BME280;3317;43.994;22.878;2023-05-08T09:25:51;101271.00;;;24.63;42.40
6567;BME280;3317;43.994;22.878;2023-05-08T09:28:20;101272.53;;;24.58;42.57
6567;BME280;3317;43.994;22.878;2023-05-08T09:30:48;101259.66;;;24.33;42.21
6567;BME280;3317;43.994;22.878;2023-05-08T09:33:15;101269.28;;;24.31;42.50
6567;BME280;3317;43.994;22.878;2023-05-08T09:35:44;101263.31;;;24.15;42.44
6567;BME280;3317;43.994;22.878;2023-05-08T09:38:31;101274.75;;;24.00;42.72
6567;BME280;3317;43.994;22.878;2023-05-08T09:41:06;101280.97;;;23.96;43.12
6567;BME280;3317;43.994;22.878;2023-05-08T09:43:33;101271.28;;;23.86;43.22
6567;BME280;3317;43.994;22.878;2023-05-08T09:46:18;101278.19;;;23.96;43.59
6567;BME280;3317;43.994;22.878;2023-05-08T09:48:46;101277.19;;;23.90;43.88
6567;BME280;3317;43.994;22.878;2023-05-08T09:51:20;101277.97;;;23.97;43.86
6567;BME280;3317;43.994;22.878;2023-05-08T09:53:49;101284.34;;;23.98;43.99
6567;BME280;3317;43.994;22.878;2023-05-08T09:56:28;101289.03;;;23.79;45.89
6567;BME280;3317;43.994;22.878;2023-05-08T09:58:56;101282.28;;;23.49;46.70
6567;BME280;3317;43.994;22.878;2023-05-08T10:01:31;101283.19;;;23.17;48.21
6567;BME280;3317;43.994;22.878;2023-05-08T10:03:59;101270.47;;;22.84;49.08
6567;BME280;3317;43.994;22.878;2023-05-08T10:06:27;101279.09;;;22.62;49.58
6567;BME280;3317;43.994;22.878;2023-05-08T10:09:08;101269.88;;;22.36;50.11
6567;BME280;3317;43.994;22.878;2023-05-08T10:11:35;101277.25;;;21.97;52.57
6567;BME280;3317;43.994;22.878;2023-05-08T10:14:02;101278.13;;;21.84;53.24
6567;BME280;3317;43.994;22.878;2023-05-08T10:16:30;101280.47;;;21.80;53.84
6567;BME280;3317;43.994;22.878;2023-05-08T10:19:04;101291.06;;;21.84;54.62
6567;BME280;3317;43.994;22.878;2023-05-08T10:21:39;101289.22;;;21.71;56.78
6567;BME280;3317;43.994;22.878;2023-05-08T10:24:12;101277.75;;;21.40;57.07
6567;BME280;3317;43.994;22.878;2023-05-08T10:26:43;101294.69;;;21.17;56.59
6567;BME280;3317;43.994;22.878;2023-05-08T10:29:17;101298.09;;;21.05;58.26
6567;BME280;3317;43.994;22.878;2023-05-08T10:31:45;101302.97;;;21.03;58.01
6567;BME280;3317;43.994;22.878;2023-05-08T10:34:18;101303.63;;;20.99;57.48
6567;BME280;3317;43.994;22.878;2023-05-08T10:36:47;101276.81;;;20.72;58.38
6567;BME280;3317;43.994;22.878;2023-05-08T10:39:14;101317.16;;;20.93;56.90
6567;BME280;3317;43.994;22.878;2023-05-08T10:41:42;101323.09;;;20.90;58.51
6567;BME280;3317;43.994;22.878;2023-05-08T10:44:09;101309.88;;;20.79;59.12
6567;BME280;3317;43.994;22.878;2023-05-08T10:46:42;101308.16;;;20.64;60.67
6567;BME280;3317;43.994;22.878;2023-05-08T10:49:17;101313.16;;;20.40;61.50
6567;BME280;3317;43.994;22.878;2023-05-08T10:51:55;101316.00;;;20.19;62.33
6567;BME280;3317;43.994;22.878;2023-05-08T10:54:36;101313.56;;;19.95;62.58
6567;BME280;3317;43.994;22.878;2023-05-08T10:57:09;101322.69;;;19.96;62.91
6567;BME280;3317;43.994;22.878;2023-05-08T10:59:36;101322.38;;;19.91;63.51
6567;BME280;3317;43.994;22.878;2023-05-08T11:02:03;101325.50;;;19.81;64.16
6567;BME280;3317;43.994;22.878;2023-05-08T11:04:31;101311.44;;;19.62;64.95
6567;BME280;3317;43.994;22.878;2023-05-08T11:07:00;101327.16;;;19.75;65.80
6567;BME280;3317;43.994;22.878;2023-05-08T11:09:30;101316.88;;;19.55;64.83
6567;BME280;3317;43.994;22.878;2023-05-08T11:12:19;101327.75;;;19.42;66.11
6567;BME280;3317;43.994;22.878;2023-05-08T11:14:57;101326.19;;;19.33;66.09
6567;BME280;3317;43.994;22.878;2023-05-08T11:17:26;101318.00;;;19.39;66.51
6567;BME280;3317;43.994;22.878;2023-05-08T11:19:57;101317.44;;;19.44;66.86
6567;BME280;3317;43.994;22.878;2023-05-08T11:22:46;101311.94;;;19.44;67.53
6567;BME280;3317;43.994;22.878;2023-05-08T11:25:13;101314.91;;;19.49;67.36
6567;BME280;3317;43.994;22.878;2023-05-08T11:28:11;101303.28;;;19.47;68.02
6567;BME280;3317;43.994;22.878;2023-05-08T11:30:43;101314.81;;;19.36;68.08
6567;BME280;3317;43.994;22.878;2023-05-08T11:33:15;101306.50;;;19.29;67.67
6567;BME280;3317;43.994;22.878;2023-05-08T11:35:48;101314.16;;;19.34;66.79
6567;BME280;3317;43.994;22.878;2023-05-08T11:38:27;101313.69;;;19.30;67.15
6567;BME280;3317;43.994;22.878;2023-05-08T11:41:00;101316.56;;;19.22;67.17
6567;BME280;3317;43.994;22.878;2023-05-08T11:46:42;101324.25;;;19.05;69.08
6567;BME280;3317;43.994;22.878;2023-05-08T11:49:10;101327.22;;;18.88;69.51
6567;BME280;3317;43.994;22.878;2023-05-08T11:51:39;101334.78;;;18.86;70.20
6567;BME280;3317;43.994;22.878;2023-05-08T11:54:11;101337.53;;;18.86;70.52
6567;BME280;3317;43.994;22.878;2023-05-08T11:56:39;101342.00;;;18.87;70.71
6567;BME280;3317;43.994;22.878;2023-05-08T11:59:07;101285.41;;;18.49;70.78
6567;BME280;3317;43.994;22.878;2023-05-08T12:01:35;101341.91;;;18.80;70.47
6567;BME280;3317;43.994;22.878;2023-05-08T12:04:04;101341.66;;;18.75;71.13
6567;BME280;3317;43.994;22.878;2023-05-08T12:06:32;101344.31;;;18.68;70.56
6567;BME280;3317;43.994;22.878;2023-05-08T12:08:59;101341.28;;;18.63;70.70
6567;BME280;3317;43.994;22.878;2023-05-08T12:11:30;101345.94;;;18.63;70.98
6567;BME280;3317;43.994;22.878;2023-05-08T12:13:57;101332.91;;;18.50;70.81
6567;BME280;3317;43.994;22.878;2023-05-08T12:16:24;101342.91;;;18.57;70.20
6567;BME280;3317;43.994;22.878;2023-05-08T12:18:52;101337.88;;;18.61;69.88
6567;BME280;3317;43.994;22.878;2023-05-08T12:21:20;101342.34;;;18.62;70.34
6567;BME280;3317;43.994;22.878;2023-05-08T12:23:47;101338.94;;;18.60;70.20
6567;BME280;3317;43.994;22.878;2023-05-08T12:26:15;101339.50;;;18.70;69.57
6567;BME280;3317;43.994;22.878;2023-05-08T12:28:44;101335.38;;;18.81;67.39
6567;BME280;3317;43.994;22.878;2023-05-08T12:31:12;101333.16;;;18.92;65.89
6567;BME280;3317;43.994;22.878;2023-05-08T12:33:40;101327.50;;;18.93;66.80
6567;BME280;3317;43.994;22.878;2023-05-08T12:36:08;101337.78;;;19.06;65.45
6567;BME280;3317;43.994;22.878;2023-05-08T12:38:35;101337.66;;;19.14;63.67
6567;BME280;3317;43.994;22.878;2023-05-08T12:41:03;101336.69;;;19.22;63.00
6567;BME280;3317;43.994;22.878;2023-05-08T12:43:33;101330.78;;;19.25;62.93
6567;BME280;3317;43.994;22.878;2023-05-08T12:46:02;101328.09;;;19.32;62.99
6567;BME280;3317;43.994;22.878;2023-05-08T12:48:29;101318.38;;;19.30;63.51
6567;BME280;3317;43.994;22.878;2023-05-08T12:51:05;101326.25;;;19.39;63.78
6567;BME280;3317;43.994;22.878;2023-05-08T12:53:32;101316.91;;;19.34;65.46
6567;BME280;3317;43.994;22.878;2023-05-08T12:56:01;101322.19;;;19.35;64.65
6567;BME280;3317;43.994;22.878;2023-05-08T12:58:30;101329.84;;;19.40;65.52
6567;BME280;3317;43.994;22.878;2023-05-08T13:01:06;101326.50;;;19.45;63.70
6567;BME280;3317;43.994;22.878;2023-05-08T13:03:37;101330.75;;;19.47;63.81
6567;BME280;3317;43.994;22.878;2023-05-08T13:06:05;101331.59;;;19.48;62.86
6567;BME280;3317;43.994;22.878;2023-05-08T13:08:34;101319.38;;;19.50;63.56
6567;BME280;3317;43.994;22.878;2023-05-08T13:11:03;101308.97;;;19.46;63.14
6567;BME280;3317;43.994;22.878;2023-05-08T13:13:31;101317.72;;;19.56;63.14
6567;BME280;3317;43.994;22.878;2023-05-08T13:16:01;101325.78;;;19.58;62.77
6567;BME280;3317;43.994;22.878;2023-05-08T13:18:30;101309.00;;;19.52;65.78